Tiempo atmosférico en la estación meteorológica de Jimena de la Frontera, Cádiz (50 m.)



Fecha
DESCASC
Temp. máxima en grados centígrados (hora)
DESCASC
Temp. mínima en grados centígrados (hora)
DESCASC
Temp. media en grados centígrados
DESCASC
Racha de viento máxima en m/sg (hora)
DESCASC
Velocidad máxima media en intervalos de 10 minutos(hora)
DESCASC
Precipitaciones diarias en mm
DESCASC
Precipitaciones de 00:00 a 06:00 en mm
DESCASC
Precipitaciones de 06:00 a 12:00 en mm
DESCASC
Precipitaciones de 12:00 a 18:00 en mm
DESCASC
Precipitaciones de 18:00 a 24:00 en mm
DESCASC
05-04-2020 18.7 (14:00) 10.6 (08:00) 14.7 11.39 (13:50) 6.39 (13:10) 0 0 0 0 0
04-04-2020 17.1 (11:50) 13.9 (01:30) 15.5 14.72 (10:30) 6.94 (11:30) 0.8 0 0 0.8 0
03-04-2020 20 (13:00) 5.3 (07:50) 12.7 13.61 (15:40) 8.33 (17:30) 0.2 0 0.2 0 0
02-04-2020 16.5 (16:40) 8.2 (00:00) 12.3 13.33 (06:40) 5.83 (19:20) 8 3.6 3.8 0.6 0
01-04-2020 18.7 (15:50) 9 (00:00) 13.9 12.22 (19:10) 5.56 (16:30) 2 0 0 0 2
31-03-2020 19.2 (14:10) 12.3 (00:00) 15.8 9.44 (02:20) 4.72 (16:20) 18 14 2.4 0.8 0.8
30-03-2020 19.5 (14:10) 6.2 (00:00) 12.8 6.39 (17:00) 4.17 (17:00) 1 0 0 0 1
29-03-2020 19.4 (15:10) 4.8 (00:00) 12.1 6.11 (14:40) 3.06 (17:40) 0 0 0 0 0
28-03-2020 18.3 (12:50) 4.5 (00:00) 11.4 10.83 (13:50) 6.94 (14:30) 0.4 0 0 0.4 0
27-03-2020 19.7 (15:50) 4.9 (00:00) 12.3 8.06 (14:20) 4.72 (15:20) 0 0 0 0 0
26-03-2020 20.8 (13:40) 5 (00:00) 12.9 11.39 (14:50) 6.67 (14:40) 0 0 0 0 0
25-03-2020 16.4 (16:20) 7.1 (00:00) 11.7 9.44 (13:10) 5.28 (13:20) 3.2 0.4 2.8 0 0
24-03-2020 15.8 (12:40) 10.1 (00:00) 13 4.72 (13:40) 2.22 (13:40) 8.8 0 7.2 1.4 0.2
23-03-2020 17.2 (12:30) 5.4 (00:00) 11.3 13.33 (15:10) 7.5 (15:10) 0.4 0 0.2 0 0.2
22-03-2020 16.8 (13:40) 7.7 (07:20) 12.2 7.22 (14:50) 4.17 (15:10) 1 0.8 0 0.2 0
21-03-2020 16.2 (12:20) 7.9 (00:00) 12.1 11.39 (00:10) 5.28 (00:10) 19.4 12 0 6 1.4
20-03-2020 17 (16:20) 13.8 (00:00) 15.4 12.22 (00:20) 6.11 (00:30) 5.4 0 0 0 5.4
19-03-2020 17.2 (10:50) 15.3 (00:00) 16.3 14.17 (12:30) 8.33 (12:30) 0 0 0 0 0
18-03-2020 17.6 (15:20) 14.9 (00:00) 16.3 22.78 (12:30) 11.67 (12:50) 1.4 1 0.4 0 0
17-03-2020 17 (15:40) 7 (00:00) 12 17.5 (14:50) 9.44 (15:30) 1.8 0.6 0.8 0 0.4
16-03-2020 17.4 (16:40) 10.4 (00:00) 13.9 12.78 (15:00) 7.78 (16:30) 0.6 0.4 0.2 0 0
15-03-2020 19.3 (14:10) 10.1 (00:00) 14.7 10.56 (14:10) 5.83 (14:30) 0 0 0 0 0
14-03-2020 20.1 (14:10) 10.1 (00:00) 15.1 8.61 (14:50) 4.44 (12:50) 0 0 0 0 0
13-03-2020 24.7 (15:50) 6.3 (07:30) 15.5 9.44 (11:00) 5.28 (11:00) 0 0 0 0 0
12-03-2020 26.3 (15:30) 6.1 (00:00) 16.2 5.28 (14:00) 2.78 (14:00) 0 0 0 0 0
11-03-2020 24.1 (13:40) 5.2 (00:00) 14.7 9.17 (13:20) 5.56 (13:50) 0 0 0 0 0
10-03-2020 23.8 (13:30) 6.9 (00:00) 15.3 16.67 (14:50) 9.44 (15:50) 0 0 0 0 0

Gráficas

Temp. máximas Temp. mínimas Temp. medias Precipitaciones Rachas de viento máximas Velocidades máximas media en intervalos de 10 minutos

Datos horarios

Fecha y hora oficial Temperatura (ºC) Velocidad del viento (km/h) Dirección del viento Racha (km/h) Dirección de racha Precipitación (mm) Presión (hPa) Tendencia (hPa) Humedad (%)
2020-04-08 23:00:00 15.4 9 Sudeste 22 Sudeste 0 -- -- 85
2020-04-08 22:00:00 15.3 11 Sudeste 30 Este 0 -- -- 84
2020-04-08 21:00:00 15.5 13 Sudeste 29 Sudeste 0 -- -- 83
2020-04-08 20:00:00 15.9 15 Sudeste 35 Sudeste 0 -- -- 78
2020-04-08 19:00:00 16.6 17 Sudeste 39 Sudeste 0 -- -- 71
2020-04-08 18:00:00 17.5 17 Sudeste 41 Sudeste 0 -- -- 67
2020-04-08 17:00:00 18 20 Sudeste 45 Sudeste 0 -- -- 66
2020-04-08 16:00:00 17.7 26 Sudeste 43 Sudeste 0 -- -- 67
2020-04-08 15:00:00 17.4 17 Sudeste 41 Sudeste 0 -- -- 74
2020-04-08 14:00:00 18 22 Sudeste 43 Sudeste 0 -- -- 67
2020-04-08 13:00:00 18.3 22 Sudeste 45 Este 0 -- -- 71
2020-04-08 12:00:00 16.7 17 Sudeste 38 Sudeste 0 -- -- 77
2020-04-08 11:00:00 16.1 14 Sudeste 36 Este 0 -- -- 82
2020-04-08 10:00:00 15.4 16 Sudeste 30 Sudeste 0 -- -- 86
2020-04-08 09:00:00 14.9 8 Sudeste 23 Sudeste 0 -- -- 89
2020-04-08 08:00:00 11 2 Este 20 Sur 0 -- -- 97
2020-04-08 07:00:00 10.9 3 Noroeste 7 Sudeste 0 -- -- 97
2020-04-08 06:00:00 11.9 3 Nordeste 14 Sudeste 0 -- -- 94
2020-04-08 05:00:00 14.6 8 Sudeste 22 Sudeste 0 -- -- 84
2020-04-08 04:00:00 11.5 3 Este 12 Sudeste 0 -- -- 97
2020-04-08 03:00:00 11 3 Norte 8 Norte 0 -- -- 96
2020-04-08 02:00:00 11.6 4 Norte 9 Norte 0 -- -- 97
2020-04-08 01:00:00 12.1 2 Sudeste 15 Sudeste 0 -- -- 94
2020-04-08 00:00:00 12.7 3 Nordeste 12 Sudeste 0 -- -- 91
2020-04-07 23:00:00 14.4 3 Sudeste 19 Sudeste 0 -- -- 87
2020-04-07 22:00:00 15.2 10 Sudeste 23 Sudeste 0 -- -- 87
2020-04-07 21:00:00 15.5 9 Sudeste 26 Sudeste 0 -- -- 85
2020-04-07 20:00:00 16.5 10 Sudeste 34 Sudeste 0 -- -- 80
2020-04-07 19:00:00 17.4 14 Sudeste 35 Sudeste 0 -- -- 76
2020-04-07 18:00:00 18.2 16 Sudeste 35 Sudeste 0 -- -- 72
2020-04-07 17:00:00 18.9 17 Sudeste 35 Sudeste 0 -- -- 71
2020-04-07 16:00:00 18.6 21 Sudeste 35 Sudeste 0 -- -- 71
2020-04-07 15:00:00 18.2 16 Sudeste 35 Este 0 -- -- 73
2020-04-07 14:00:00 16.8 16 Sudeste 31 Sudeste 0 -- -- 80
2020-04-07 13:00:00 17.3 11 Este 28 Sudeste 0 -- -- 76
2020-04-07 12:00:00 16.1 12 Este 25 Este 0 -- -- 80
2020-04-07 11:00:00 15.7 7 Sudeste 28 Sudeste 0 -- -- 83
2020-04-07 10:00:00 14.8 8 Sudeste 21 Este 0 -- -- 91
2020-04-07 09:00:00 12.1 0 Calma 4 Noroeste 0 -- -- 98
2020-04-07 08:00:00 11.6 2 Norte 5 Nordeste 0 -- -- 98
2020-04-07 07:00:00 11.5 0 Calma 6 Nordeste 0 -- -- 98
2020-04-07 06:00:00 10.9 4 Nordeste 6 Nordeste 0 -- -- 98
2020-04-07 05:00:00 11.3 2 Este 4 Nordeste 0 -- -- 97
2020-04-07 04:00:00 11.1 2 Nordeste 7 Nordeste 0 -- -- 97
2020-04-07 03:00:00 11.4 3 Este 8 Nordeste 0 -- -- 96
2020-04-07 02:00:00 12.2 5 Este 8 Este 0 -- -- 93
2020-04-07 01:00:00 14.7 0 Calma 7 Sudeste 0 -- -- 88
2020-04-07 00:00:00 15.3 3 Sudeste 9 Sudeste 0 -- -- 88
2020-04-06 23:00:00 15.5 3 Sur 13 Sudeste 0 -- -- 86
2020-04-06 22:00:00 15.7 6 Sudeste 16 Sudeste 0 -- -- 84
2020-04-06 21:00:00 15.9 9 Sudeste 19 Sudeste 0 -- -- 80
2020-04-06 20:00:00 16.6 10 Sudeste 20 Sudeste 0 -- -- 79
2020-04-06 19:00:00 18.5 9 Sur 16 Sur 0 -- -- 74
2020-04-06 18:00:00 18.2 8 Sur 19 Sudeste 0 -- -- 76
2020-04-06 17:00:00 18.3 9 Sudeste 21 Sudeste 0 -- -- 74
2020-04-06 16:00:00 18.3 14 Sudeste 26 Sudeste 0 -- -- 73
2020-04-06 15:00:00 18.9 11 Sudeste 23 Sudeste 0 -- -- 67
2020-04-06 14:00:00 18.1 12 Sudeste 23 Sur 0 -- -- 68
2020-04-06 13:00:00 17.2 13 Sudeste 24 Sudeste 0 -- -- 69
2020-04-06 12:00:00 16.6 5 Este 16 Sudeste 0 -- -- 74
2020-04-06 11:00:00 15.2 3 Oeste 6 Noroeste 0 -- -- 82
2020-04-06 10:00:00 13.8 0 Calma 5 Noroeste 0 -- -- 91
2020-04-06 09:00:00 13 2 Nordeste 5 Este 0 -- -- 93
2020-04-06 08:00:00 12.6 0 Calma 5 Nordeste 0 -- -- 93
2020-04-06 07:00:00 12.4 2 Norte 4 Norte 0 -- -- 92
2020-04-06 06:00:00 12.4 0 Calma 5 Norte 0 -- -- 94
2020-04-06 05:00:00 12.2 4 Nordeste 10 Este 0 -- -- 94
2020-04-06 04:00:00 12.4 6 Este 8 Nordeste 0 -- -- 93
2020-04-06 03:00:00 14 2 Nordeste 11 Este 0 -- -- 88
2020-04-06 02:00:00 14.5 5 Este 14 Este 0 -- -- 88
2020-04-06 01:00:00 14.5 4 Este 8 Este 0 -- -- 90
2020-04-06 00:00:00 14.5 4 Sudeste 11 Sudeste 0 -- -- 89
2020-04-05 23:00:00 14.6 0 Calma 4 Sur 0 -- -- 91
2020-04-05 22:00:00 14.8 2 Sur 12 Sudeste 0 -- -- 88
2020-04-05 21:00:00 15.2 5 Sudeste 14 Sur 0 -- -- 87
2020-04-05 20:00:00 15.9 8 Sudeste 18 Sur 0 -- -- 82
2020-04-05 19:00:00 16.5 9 Sudeste 23 Sudeste 0 -- -- 79
2020-04-05 18:00:00 16.8 11 Sudeste 28 Sudeste 0 -- -- 78
2020-04-05 17:00:00 17.7 15 Sudeste 31 Sudeste 0 -- -- 73
2020-04-05 16:00:00 17.5 17 Sudeste 38 Sudeste 0 -- -- 73
2020-04-05 15:00:00 18.5 18 Sudeste 39 Sudeste 0 -- -- 68
2020-04-05 14:00:00 18.7 18 Sudeste 41 Sudeste 0 -- -- 65
2020-04-05 13:00:00 18.1 23 Sudeste 40 Sudeste 0 -- -- 64
2020-04-05 12:00:00 17.7 15 Sudeste 36 Sudeste 0 -- -- 69
2020-04-05 11:00:00 16.9 17 Sudeste 36 Sudeste 0 -- -- 70
2020-04-05 10:00:00 15.2 10 Sudeste 33 Sudeste 0 -- -- 73
2020-04-05 09:00:00 11.2 3 Norte 10 Sur 0 -- -- 92
2020-04-05 08:00:00 10.6 2 Nordeste 6 Norte 0 -- -- 92
2020-04-05 07:00:00 11 2 Nordeste 17 Sudeste 0 -- -- 91
2020-04-05 06:00:00 10.8 3 Noroeste 9 Oeste 0 -- -- 91
2020-04-05 05:00:00 11.7 6 Noroeste 23 Este 0 -- -- 84
2020-04-05 04:00:00 14.6 10 Sudeste 28 Este 0 -- -- 75
2020-04-05 03:00:00 14.9 15 Sudeste 32 Sudeste 0 -- -- 76
2020-04-05 02:00:00 15.2 13 Sudeste 26 Este 0 -- -- 75
2020-04-05 01:00:00 15.4 12 Este 30 Este 0 -- -- 71
2020-04-05 00:00:00 14.7 10 Sudeste 20 Sudeste 0 -- -- 74
2020-04-04 23:00:00 14 6 Sudeste 25 Este 0 -- -- 80
2020-04-04 22:00:00 14.8 9 Sudeste 28 Sudeste 0 -- -- 77
2020-04-04 21:00:00 15.3 14 Sudeste 36 Este 0 -- -- 75
2020-04-04 20:00:00 15.7 15 Sudeste 35 Sudeste 0 -- -- 75
2020-04-04 19:00:00 15.9 13 Este 38 Este 0 -- -- 75
2020-04-04 18:00:00 16.2 20 Sudeste 37 Este 0 -- -- 73
2020-04-04 17:00:00 15.7 14 Sudeste 42 Sudeste 0 -- -- 78
2020-04-04 16:00:00 15.2 19 Sudeste 43 Este 0 -- -- 81
2020-04-04 15:00:00 14.8 18 Sudeste 35 Este 0.4 -- -- 81
2020-04-04 14:00:00 14.6 13 Este 38 Sudeste 0.4 -- -- 84
2020-04-04 13:00:00 15.9 21 Sudeste 50 Este 0 -- -- 75
2020-04-04 12:00:00 16.9 23 Sudeste 48 Sudeste 0 -- -- 69
2020-04-04 11:00:00 16.1 22 Este 53 Este 0 -- -- 70
2020-04-04 10:00:00 15.1 19 Sudeste 44 Este 0 -- -- 77
2020-04-04 09:00:00 14.6 24 Sudeste 41 Sudeste 0 -- -- 77
2020-04-04 08:00:00 14.3 18 Sudeste 41 Sudeste 0 -- -- 76
2020-04-04 07:00:00 14.1 19 Sudeste 45 Sudeste 0 -- -- 70
2020-04-04 06:00:00 14.1 20 Este 38 Sudeste 0 -- -- 72
2020-04-04 05:00:00 13.9 16 Este 30 Este 0 -- -- 68
2020-04-04 04:00:00 14.2 17 Sudeste 42 Este 0 -- -- 61
2020-04-04 03:00:00 14 18 Este 36 Sudeste 0 -- -- 73
2020-04-04 02:00:00 14.2 19 Sudeste 35 Este 0 -- -- 69
2020-04-04 01:00:00 14.2 17 Este 35 Este 0 -- -- 64
2020-04-04 00:00:00 14.3 18 Este 37 Este 0 -- -- 68
2020-04-03 23:00:00 14.1 13 Este 28 Este 0 -- -- 72
2020-04-03 22:00:00 14.2 10 Sudeste 26 Sudeste 0 -- -- 78
2020-04-03 21:00:00 14.9 15 Este 28 Este 0 -- -- 77
2020-04-03 20:00:00 16.4 17 Este 35 Este 0 -- -- 66
2020-04-03 19:00:00 17.2 18 Sudeste 41 Sudeste 0 -- -- 64
2020-04-03 18:00:00 17.9 24 Sudeste 48 Sudeste 0 -- -- 66
2020-04-03 17:00:00 18.2 30 Este 49 Este 0 -- -- 54
2020-04-03 16:00:00 18.4 25 Sudeste 49 Sudeste 0 -- -- 60
2020-04-03 15:00:00 18.5 22 Este 37 Este 0 -- -- 64
2020-04-03 14:00:00 18.9 15 Sudeste 33 Sudeste 0 -- -- 57
2020-04-03 13:00:00 20 10 Sudeste 25 Sudeste 0 -- -- 50
2020-04-03 12:00:00 17.8 4 Oeste 8 Sudoeste 0 -- -- 67
2020-04-03 11:00:00 15 3 Sudoeste 7 Este 0 -- -- 74
2020-04-03 10:00:00 10.9 0 Calma 4 Sudoeste 0 -- -- 95
2020-04-03 09:00:00 7.1 2 Nordeste 6 Nordeste 0.2 -- -- 100
2020-04-03 08:00:00 5.3 6 Nordeste 10 Nordeste 0 -- -- 99
2020-04-03 07:00:00 5.8 2 Este 6 Norte 0 -- -- 98
2020-04-03 06:00:00 6.5 4 Norte 8 Este 0 -- -- 98
2020-04-03 05:00:00 7 6 Nordeste 9 Nordeste 0 -- -- 98
2020-04-03 04:00:00 7.5 6 Nordeste 10 Nordeste 0 -- -- 98
2020-04-03 03:00:00 7.6 3 Este 6 Sur 0 -- -- 98
2020-04-03 02:00:00 7.9 0 Calma 7 Este 0 -- -- 96
2020-04-03 01:00:00 8.9 5 Este 9 Nordeste 0 -- -- 95
2020-04-03 00:00:00 10 4 Este 15 Noroeste 0 -- -- 92
2020-04-02 23:00:00 12.1 10 Noroeste 26 Norte 0 -- -- 84
2020-04-02 22:00:00 11.5 0 Calma 3 Sudoeste 0 -- -- 93
2020-04-02 21:00:00 12.7 2 Noroeste 9 Noroeste 0 -- -- 87
2020-04-02 20:00:00 13.2 3 Noroeste 39 Noroeste 0 -- -- 84
2020-04-02 19:00:00 15.6 15 Oeste 30 Noroeste 0 -- -- 66
2020-04-02 18:00:00 16 14 Noroeste 30 Noroeste 0 -- -- 59
2020-04-02 17:00:00 16.4 17 Noroeste 35 Noroeste 0 -- -- 57
2020-04-02 16:00:00 15.8 17 Noroeste 34 Noroeste 0 -- -- 60
2020-04-02 15:00:00 14.9 17 Noroeste 31 Noroeste 0 -- -- 62
2020-04-02 14:00:00 14.4 16 Noroeste 25 Norte 0.2 -- -- 68
2020-04-02 13:00:00 12.3 4 Nordeste 19 Noroeste 0.4 -- -- 86
2020-04-02 12:00:00 11.5 3 Noroeste 17 Noroeste 0 -- -- 90
2020-04-02 11:00:00 10.4 2 Sudoeste 6 Este 0.6 -- -- 96
2020-04-02 10:00:00 9.6 3 Noroeste 10 Noroeste 0.6 -- -- 97
2020-04-02 09:00:00 8.8 3 Este 6 Este 0 -- -- 99
2020-04-02 08:00:00 9 0 Calma 13 Nordeste 0.8 -- -- 96
2020-04-02 07:00:00 9.5 9 Nordeste 48 Sudoeste 1.8 -- -- 93
2020-04-02 06:00:00 10.5 3 Sur 9 Este 0 -- -- 99
2020-04-02 05:00:00 10.3 2 Sur 6 Sudeste 0.2 -- -- 99
2020-04-02 04:00:00 10.2 2 Este 7 Oeste 1.2 -- -- 99
2020-04-02 03:00:00 10.1 3 Sur 5 Noroeste 2 -- -- 99
2020-04-02 02:00:00 9.7 2 Nordeste 8 Nordeste 0.2 -- -- 99
2020-04-02 01:00:00 9.6 2 Nordeste 8 Este 0 -- -- 98
2020-04-02 00:00:00 9.6 2 Nordeste 7 Nordeste 0.2 -- -- 97
2020-04-01 23:00:00 10.5 0 Calma 6 Este 0 -- -- 96
2020-04-01 22:00:00 11.1 0 Calma 9 Nordeste 0 -- -- 95
2020-04-01 21:00:00 12.1 6 Sur 19 Sur 0 -- -- 93
2020-04-01 20:00:00 12.7 8 Oeste 44 Oeste 1.8 -- -- 87
2020-04-01 19:00:00 15.5 19 Oeste 36 Oeste 0 -- -- 63
2020-04-01 18:00:00 16.8 15 Oeste 32 Oeste 0 -- -- 57
2020-04-01 17:00:00 17.8 16 Oeste 33 Oeste 0 -- -- 54
2020-04-01 16:00:00 18.7 19 Oeste 33 Oeste 0 -- -- 53
2020-04-01 15:00:00 17.4 19 Oeste 32 Oeste 0 -- -- 57
2020-04-01 14:00:00 17.5 10 Oeste 20 Oeste 0 -- -- 58
2020-04-01 13:00:00 16.8 7 Oeste 18 Sudoeste 0 -- -- 64
2020-04-01 12:00:00 16 7 Sudoeste 19 Oeste 0 -- -- 73
2020-04-01 11:00:00 13.9 4 Sudeste 8 Sudeste 0 -- -- 86
2020-04-01 10:00:00 11.5 3 Este 6 Sudeste 0 -- -- 99
2020-04-01 09:00:00 9.7 0 Calma 8 Este 0 -- -- 100
2020-04-01 08:00:00 9 5 Este 7 Nordeste 0 -- -- 99
2020-04-01 07:00:00 10 0 Calma 4 Este 0 -- -- 99
2020-04-01 06:00:00 10 3 Este 6 Nordeste 0 -- -- 99
2020-04-01 05:00:00 10.1 2 Nordeste 4 Nordeste 0 -- -- 99
2020-04-01 04:00:00 10.5 0 Calma 8 Nordeste 0 -- -- 98
2020-04-01 03:00:00 11.4 0 Calma 5 Este 0 -- -- 98
2020-04-01 02:00:00 11.9 3 Oeste 12 Noroeste 0 -- -- 98
2020-04-01 01:00:00 11.6 2 Este 6 Nordeste 0 -- -- 97
2020-04-01 00:00:00 12.3 4 Nordeste 6 Norte 0 -- -- 97
2020-03-31 23:00:00 13.3 3 Nordeste 6 Nordeste 0.2 -- -- 96
2020-03-31 22:00:00 14 0 Calma 6 Nordeste 0 -- -- 95
2020-03-31 21:00:00 14.6 2 Este 19 Sudoeste 0.6 -- -- 92
2020-03-31 20:00:00 16.2 4 Sur 24 Sudoeste 0 -- -- 81
2020-03-31 19:00:00 17 11 Sudoeste 27 Sudoeste 0 -- -- 75
2020-03-31 18:00:00 17 5 Sudeste 30 Sudoeste 0 -- -- 78
2020-03-31 17:00:00 18 15 Sudoeste 31 Sur 0 -- -- 71
2020-03-31 16:00:00 18.3 11 Sudoeste 32 Sur 0 -- -- 73
2020-03-31 15:00:00 18.2 12 Sur 31 Sudoeste 0 -- -- 75
2020-03-31 14:00:00 18.9 14 Sur 30 Oeste 0.2 -- -- 78
2020-03-31 13:00:00 16.4 10 Sudeste 21 Sudeste 0.6 -- -- 84
2020-03-31 12:00:00 15 9 Sudeste 20 Sudeste 0 -- -- 92
2020-03-31 11:00:00 14.8 4 Sudeste 10 Sudeste 0.2 -- -- 97
2020-03-31 10:00:00 13.3 3 Sur 5 Sur 1.4 -- -- 99
2020-03-31 09:00:00 12.4 0 Calma 6 Noroeste 0 -- -- 98
2020-03-31 08:00:00 12.5 3 Noroeste 9 Oeste 0 -- -- 98
2020-03-31 07:00:00 12.6 3 Nordeste 10 Este 0.8 -- -- 96
2020-03-31 06:00:00 12.5 12 Sudeste 25 Este 0.4 -- -- 97
2020-03-31 05:00:00 12.6 7 Sur 30 Sur 1.4 -- -- 95
2020-03-31 04:00:00 12.5 9 Sudeste 30 Este 1 -- -- 95
2020-03-31 03:00:00 12.4 17 Sudeste 34 Este 5.2 -- -- 96
2020-03-31 02:00:00 12.6 6 Sur 21 Sudeste 5.8 -- -- 95
2020-03-31 01:00:00 13.6 4 Sudeste 12 Sudeste 0.2 -- -- 94
2020-03-31 00:00:00 13.2 3 Norte 5 Noroeste 0.8 -- -- 93
2020-03-30 23:00:00 13.5 0 Calma 8 Este 0.2 -- -- 91
2020-03-30 22:00:00 14.1 3 Este 7 Sur 0 -- -- 87
2020-03-30 21:00:00 15.7 2 Sudeste 8 Este 0 -- -- 75
2020-03-30 20:00:00 16.6 5 Este 9 Este 0 -- -- 68
2020-03-30 19:00:00 17.6 4 Norte 19 Noroeste 0 -- -- 62
2020-03-30 18:00:00 17.7 10 Noroeste 21 Oeste 0 -- -- 62
2020-03-30 17:00:00 18.9 15 Oeste 23 Oeste 0 -- -- 54
2020-03-30 16:00:00 18.5 9 Noroeste 19 Oeste 0 -- -- 65
2020-03-30 15:00:00 19 6 Sur 13 Sudoeste 0 -- -- 64
2020-03-30 14:00:00 19.4 3 Noroeste 13 Sudoeste 0 -- -- 59
2020-03-30 13:00:00 18.4 3 Nordeste 12 Sudoeste 0 -- -- 68
2020-03-30 12:00:00 16.5 4 Sudoeste 9 Oeste 0 -- -- 73
2020-03-30 11:00:00 12.6 3 Oeste 5 Sudoeste 0 -- -- 93
2020-03-30 10:00:00 10 0 Calma 4 Este 0 -- -- 100
2020-03-30 09:00:00 6.9 0 Calma 4 Noroeste 0 -- -- 99
2020-03-30 08:00:00 6.3 2 Nordeste 6 Nordeste 0 -- -- 98
2020-03-30 07:00:00 6.8 3 Nordeste 6 Nordeste 0 -- -- 98
2020-03-30 06:00:00 7.4 3 Norte 6 Nordeste 0 -- -- 97
2020-03-30 05:00:00 8.4 3 Nordeste 8 Nordeste 0 -- -- 97
2020-03-30 04:00:00 9.2 5 Este 7 Nordeste 0 -- -- 96
2020-03-30 03:00:00 10.1 2 Este 9 Nordeste 0 -- -- 95
2020-03-30 02:00:00 10.4 3 Nordeste 9 Nordeste 0 -- -- 96
2020-03-30 01:00:00 11.3 3 Este 5 Norte 0 -- -- 92
2020-03-30 00:00:00 12.5 0 Calma 7 Nordeste 0 -- -- 89
2020-03-29 23:00:00 13.2 0 Calma 6 Nordeste 0 -- -- 87
2020-03-29 22:00:00 13.7 4 Este 7 Nordeste 0 -- -- 84
2020-03-29 21:00:00 14.9 2 Sur 10 Sudeste 0 -- -- 75
2020-03-29 20:00:00 16.4 4 Sudeste 13 Sudeste 0 -- -- 67
2020-03-29 19:00:00 17.6 8 Sudeste 17 Sudeste 0 -- -- 61
2020-03-29 18:00:00 18.3 7 Sudeste 18 Sur 0 -- -- 58
2020-03-29 17:00:00 19.2 7 Sur 20 Sudeste 0 -- -- 56
2020-03-29 16:00:00 19.2 10 Sudeste 22 Sur 0 -- -- 57
2020-03-29 15:00:00 19.3 8 Sur 22 Sudeste 0 -- -- 57
2020-03-29 14:00:00 18.4 9 Sudeste 19 Sudeste 0 -- -- 61
2020-03-29 13:00:00 17.8 4 Sur 21 Sudeste 0 -- -- 61
2020-03-29 12:00:00 16.5 8 Sur 17 Sur 0 -- -- 69
2020-03-29 11:00:00 13.6 2 Oeste 5 Noroeste 0 -- -- 80
2020-03-29 10:00:00 9.4 3 Noroeste 5 Noroeste 0 -- -- 94
2020-03-29 09:00:00 6.1 0 Calma 5 Nordeste 0 -- -- 99
2020-03-29 08:00:00 5.1 4 Norte 9 Nordeste 0 -- -- 98
2020-03-29 07:00:00 5.5 0 Calma 6 Nordeste 0 -- -- 97
2020-03-29 06:00:00 6 2 Norte 5 Nordeste 0 -- -- 97
2020-03-29 05:00:00 6.3 0 Calma 5 Nordeste 0 -- -- 96
2020-03-29 03:00:00 8.2 6 Nordeste 10 Norte 0 -- -- 94
2020-03-29 01:00:00 9.3 5 Nordeste 7 Nordeste 0 -- -- 90
2020-03-29 00:00:00 11.6 4 Sudeste 17 Este 0 -- -- 85
2020-03-28 23:00:00 12.7 10 Este 26 Sudeste 0 -- -- 83
2020-03-28 22:00:00 13.6 14 Sudeste 25 Este 0 -- -- 81
2020-03-28 21:00:00 13.6 8 Sudeste 21 Sudeste 0 -- -- 82
2020-03-28 20:00:00 13.8 12 Este 31 Este 0 -- -- 81
2020-03-28 19:00:00 14.3 17 Este 34 Este 0 -- -- 78
2020-03-28 18:00:00 15 17 Este 37 Sudeste 0 -- -- 77
2020-03-28 17:00:00 15.3 18 Este 36 Este 0 -- -- 77
2020-03-28 16:00:00 14.1 19 Este 36 Este 0.4 -- -- 83
2020-03-28 15:00:00 14.2 20 Sudeste 39 Este 0 -- -- 86
2020-03-28 14:00:00 16.4 24 Este 39 Sudeste 0 -- -- 81
2020-03-28 13:00:00 17.8 20 Sudeste 33 Este 0 -- -- 67
2020-03-28 12:00:00 17.8 13 Sudeste 27 Sudeste 0 -- -- 65
2020-03-28 11:00:00 16.5 9 Sur 18 Sudeste 0 -- -- 73
2020-03-28 10:00:00 12.3 2 Oeste 5 Oeste 0 -- -- 89
2020-03-28 09:00:00 8.2 0 Calma 3 Este 0 -- -- 100
2020-03-28 08:00:00 5.7 0 Calma 6 Nordeste 0 -- -- 100
2020-03-28 07:00:00 4.6 3 Este 6 Este 0 -- -- 98
2020-03-28 06:00:00 5 0 Calma 6 Nordeste 0 -- -- 98
2020-03-28 05:00:00 5.3 0 Calma 6 Nordeste 0 -- -- 98
2020-03-28 04:00:00 6.1 2 Este 5 Nordeste 0 -- -- 97
2020-03-28 03:00:00 7 0 Calma 4 Este 0 -- -- 97
2020-03-28 02:00:00 7.6 0 Calma 6 Nordeste 0 -- -- 96
2020-03-28 01:00:00 8 0 Calma 5 Nordeste 0 -- -- 96
2020-03-28 00:00:00 8 3 Nordeste 8 Nordeste 0 -- -- 95
2020-03-27 23:00:00 8.6 3 Este 6 Norte 0 -- -- 94
2020-03-27 22:00:00 9.6 4 Nordeste 7 Nordeste 0 -- -- 91
2020-03-27 21:00:00 11.8 3 Sudoeste 8 Sudoeste 0 -- -- 85
2020-03-27 20:00:00 14.7 7 Oeste 14 Oeste 0 -- -- 71
2020-03-27 19:00:00 17.2 8 Oeste 22 Sudoeste 0 -- -- 60
2020-03-27 18:00:00 18.7 12 Oeste 21 Oeste 0 -- -- 55
2020-03-27 17:00:00 19.4 14 Oeste 24 Oeste 0 -- -- 54
2020-03-27 16:00:00 19.7 14 Oeste 25 Oeste 0 -- -- 58
2020-03-27 15:00:00 19 13 Noroeste 29 Noroeste 0 -- -- 60
2020-03-27 14:00:00 18.1 12 Oeste 27 Oeste 0 -- -- 58
2020-03-27 13:00:00 17.4 13 Noroeste 21 Noroeste 0 -- -- 64
2020-03-27 12:00:00 16.5 8 Noroeste 24 Oeste 0 -- -- 69
2020-03-27 11:00:00 15.5 15 Oeste 25 Oeste 0 -- -- 71
2020-03-27 10:00:00 13.2 5 Sudeste 9 Sur 0 -- -- 83
2020-03-27 09:00:00 9.2 0 Calma 8 Noroeste 0 -- -- 100
2020-03-27 08:00:00 5.8 8 Este 9 Este 0 -- -- 100
2020-03-27 07:00:00 5 3 Sudeste 9 Nordeste 0 -- -- 98
2020-03-27 06:00:00 5.5 3 Este 8 Nordeste 0 -- -- 98
2020-03-27 05:00:00 6.2 0 Calma 5 Nordeste 0 -- -- 97
2020-03-27 04:00:00 6.7 2 Noroeste 8 Nordeste 0 -- -- 97
2020-03-27 03:00:00 7.4 5 Este 8 Este 0 -- -- 98
2020-03-27 02:00:00 8.1 3 Nordeste 7 Nordeste 0 -- -- 96
2020-03-27 01:00:00 8.7 4 Nordeste 7 Nordeste 0 -- -- 94
2020-03-27 00:00:00 9.5 3 Nordeste 10 Nordeste 0 -- -- 92
2020-03-26 23:00:00 9.7 4 Nordeste 9 Nordeste 0 -- -- 92
2020-03-26 22:00:00 11.1 5 Este 8 Nordeste 0 -- -- 88
2020-03-26 21:00:00 14.4 3 Noroeste 16 Oeste 0 -- -- 75
2020-03-26 20:00:00 16.1 10 Noroeste 24 Sudoeste 0 -- -- 69
2020-03-26 19:00:00 18.3 13 Oeste 32 Oeste 0 -- -- 62
2020-03-26 18:00:00 19.7 17 Oeste 31 Oeste 0 -- -- 54
2020-03-26 17:00:00 20.4 18 Oeste 36 Oeste 0 -- -- 56
2020-03-26 16:00:00 20.5 21 Oeste 40 Oeste 0 -- -- 56
2020-03-26 15:00:00 20.5 23 Oeste 41 Oeste 0 -- -- 55
2020-03-26 14:00:00 20.5 22 Oeste 36 Oeste 0 -- -- 58
2020-03-26 13:00:00 20 17 Oeste 31 Oeste 0 -- -- 63
2020-03-26 12:00:00 18.8 14 Oeste 33 Noroeste 0 -- -- 70
2020-03-26 11:00:00 17.5 15 Noroeste 36 Noroeste 0 -- -- 70
2020-03-26 10:00:00 12.9 2 Sudeste 9 Sudoeste 0 -- -- 98
2020-03-26 09:00:00 9.3 3 Este 6 Este 0 -- -- 100
2020-03-26 08:00:00 5.7 3 Nordeste 6 Nordeste 0 -- -- 100
2020-03-26 07:00:00 5.1 3 Este 6 Este 0 -- -- 99
2020-03-26 06:00:00 5.8 0 Calma 7 Este 0 -- -- 99
2020-03-26 05:00:00 6.2 6 Nordeste 9 Nordeste 0 -- -- 99
2020-03-26 04:00:00 5.8 0 Calma 9 Nordeste 0 -- -- 99
2020-03-26 03:00:00 6 4 Nordeste 6 Este 0 -- -- 98
2020-03-26 02:00:00 6.8 0 Calma 8 Nordeste 0 -- -- 98
2020-03-26 01:00:00 7.1 2 Este 4 Este 0 -- -- 98
2020-03-26 00:00:00 7.1 3 Nordeste 7 Nordeste 0 -- -- 96
2020-03-25 23:00:00 7.8 2 Nordeste 6 Nordeste 0 -- -- 95
2020-03-25 22:00:00 8.8 5 Nordeste 7 Nordeste 0 -- -- 93
2020-03-25 21:00:00 9.8 7 Nordeste 11 Nordeste 0 -- -- 90
2020-03-25 20:00:00 12.1 2 Noroeste 13 Sudeste 0 -- -- 84
2020-03-25 19:00:00 14.2 8 Sudeste 18 Sudeste 0 -- -- 69
2020-03-25 18:00:00 15.3 10 Sudeste 22 Sudeste 0 -- -- 67
2020-03-25 17:00:00 15.5 12 Sudeste 21 Sudeste 0 -- -- 66
2020-03-25 16:00:00 16.2 10 Sudeste 24 Este 0 -- -- 70
2020-03-25 15:00:00 15.5 13 Este 26 Este 0 -- -- 72
2020-03-25 14:00:00 14.6 15 Este 34 Este 0 -- -- 75
2020-03-25 13:00:00 14.3 8 Este 17 Sudeste 0 -- -- 78
2020-03-25 12:00:00 13.9 6 Este 15 Este 0 -- -- 82
2020-03-25 11:00:00 13.9 3 Oeste 5 Sudoeste 0 -- -- 90
2020-03-25 10:00:00 12.9 3 Noroeste 8 Noroeste 0.2 -- -- 95
2020-03-25 09:00:00 12.4 0 Calma 10 Nordeste 0.4 -- -- 97
2020-03-25 08:00:00 12.2 0 Calma 13 Este 0.6 -- -- 98
2020-03-25 07:00:00 12.8 0 Calma 5 Sudeste 1.6 -- -- 100
2020-03-25 06:00:00 12.8 0 Calma 4 Nordeste 0.2 -- -- 99
2020-03-25 05:00:00 12.8 0 Calma 4 Sudeste 0.2 -- -- 99
2020-03-25 04:00:00 12.8 0 Calma 4 Este 0 -- -- 99
2020-03-25 03:00:00 12.8 2 Nordeste 5 Nordeste 0 -- -- 99
2020-03-25 02:00:00 12.9 2 Este 6 Norte 0 -- -- 99
2020-03-25 01:00:00 13.1 0 Calma 4 Este 0 -- -- 99
2020-03-25 00:00:00 13.3 2 Este 3 Noroeste 0 -- -- 99
2020-03-24 23:00:00 13.3 2 Nordeste 4 Nordeste 0 -- -- 98
2020-03-24 22:00:00 13.3 0 Calma 4 Este 0 -- -- 98
2020-03-24 21:00:00 13.3 3 Nordeste 7 Nordeste 0.2 -- -- 97
2020-03-24 20:00:00 14 4 Este 5 Este 0 -- -- 94
2020-03-24 19:00:00 15 0 Calma 3 Sudoeste 0 -- -- 92
2020-03-24 18:00:00 14.9 0 Calma 6 Sur 0 -- -- 91
2020-03-24 17:00:00 14.7 3 Sudeste 6 Sur 0 -- -- 92
2020-03-24 16:00:00 14.9 4 Sudeste 6 Sudeste 0 -- -- 91
2020-03-24 15:00:00 14.3 3 Sur 11 Sur 0.8 -- -- 92
2020-03-24 14:00:00 14.6 5 Sur 17 Sur 0.6 -- -- 93
2020-03-24 13:00:00 15.5 2 Sudeste 8 Sudoeste 0 -- -- 87
2020-03-24 12:00:00 14.4 4 Sur 8 Sudoeste 0 -- -- 93
2020-03-24 11:00:00 12.5 3 Sudeste 8 Noroeste 0.2 -- -- 97
2020-03-24 10:00:00 12 0 Calma 6 Sur 0.2 -- -- 99
2020-03-24 09:00:00 11.1 3 Oeste 12 Norte 2.6 -- -- 99
2020-03-24 08:00:00 10.9 2 Sur 8 Nordeste 3.2 -- -- 98
2020-03-24 07:00:00 10.9 4 Nordeste 11 Sur 1 -- -- 96
2020-03-24 06:00:00 10.3 4 Este 8 Este 0 -- -- 97
2020-03-24 05:00:00 10.1 5 Este 9 Nordeste 0 -- -- 97
2020-03-24 04:00:00 10.1 3 Este 6 Nordeste 0 -- -- 96
2020-03-24 03:00:00 10.5 2 Nordeste 6 Este 0 -- -- 96
2020-03-24 02:00:00 11.1 2 Este 8 Noroeste 0 -- -- 97
2020-03-24 01:00:00 10.8 3 Norte 7 Nordeste 0 -- -- 96
2020-03-24 00:00:00 10.9 2 Sudoeste 5 Norte 0 -- -- 95
2020-03-23 23:00:00 10.6 2 Norte 5 Nordeste 0 -- -- 96
2020-03-23 22:00:00 10.9 4 Nordeste 6 Nordeste 0 -- -- 94
2020-03-23 21:00:00 12 0 Calma 8 Este 0.2 -- -- 93
2020-03-23 20:00:00 12.8 4 Este 6 Este 0 -- -- 89
2020-03-23 19:00:00 14.2 5 Este 23 Sudeste 0 -- -- 72
2020-03-23 18:00:00 14.2 10 Sudeste 28 Este 0 -- -- 72
2020-03-23 17:00:00 14.7 21 Sudeste 40 Este 0 -- -- 70
2020-03-23 16:00:00 16.4 21 Sudeste 48 Sudeste 0 -- -- 62
2020-03-23 15:00:00 16.7 26 Sudeste 44 Este 0 -- -- 62
2020-03-23 14:00:00 17 22 Este 37 Este 0 -- -- 66
2020-03-23 13:00:00 17.1 20 Este 33 Este 0 -- -- 64
2020-03-23 12:00:00 17 14 Sudeste 23 Sudeste 0 -- -- 64
2020-03-23 11:00:00 15 3 Noroeste 9 Noroeste 0 -- -- 79
2020-03-23 10:00:00 11.2 3 Noroeste 9 Norte 0 -- -- 95
2020-03-23 09:00:00 7.5 0 Calma 5 Norte 0 -- -- 100
2020-03-23 08:00:00 6 3 Nordeste 5 Nordeste 0 -- -- 100
2020-03-23 07:00:00 5.6 2 Nordeste 6 Este 0.2 -- -- 99
2020-03-23 06:00:00 5.5 3 Nordeste 9 Nordeste 0 -- -- 99
2020-03-23 05:00:00 5.8 0 Calma 6 Nordeste 0 -- -- 99
2020-03-23 04:00:00 6.4 2 Norte 6 Nordeste 0 -- -- 99
2020-03-23 03:00:00 6.5 2 Nordeste 6 Nordeste 0 -- -- 99
2020-03-23 02:00:00 7.1 2 Nordeste 7 Este 0 -- -- 98
2020-03-23 01:00:00 8 4 Nordeste 6 Nordeste 0 -- -- 97
2020-03-23 00:00:00 8.8 3 Nordeste 8 Nordeste 0 -- -- 96
2020-03-22 23:00:00 10.1 5 Nordeste 8 Nordeste 0 -- -- 95
2020-03-22 22:00:00 12.1 0 Calma 5 Este 0 -- -- 94
2020-03-22 21:00:00 12.6 2 Este 5 Sur 0 -- -- 94
2020-03-22 20:00:00 12.9 2 Oeste 9 Este 0 -- -- 92
2020-03-22 19:00:00 13.4 6 Sudeste 15 Sudeste 0 -- -- 89
2020-03-22 18:00:00 13.9 6 Sudeste 15 Sudeste 0.2 -- -- 88
2020-03-22 17:00:00 14.1 7 Sudeste 14 Sudeste 0 -- -- 84
2020-03-22 16:00:00 14.6 6 Sudeste 24 Sudeste 0 -- -- 79
2020-03-22 15:00:00 14.8 14 Sudeste 26 Sudeste 0 -- -- 82
2020-03-22 14:00:00 16.2 7 Sudeste 14 Sudeste 0 -- -- 73
2020-03-22 13:00:00 15.1 3 Sudeste 14 Sudoeste 0 -- -- 70
2020-03-22 12:00:00 15.6 5 Sudoeste 16 Sudeste 0 -- -- 72
2020-03-22 11:00:00 13.7 4 Sur 10 Sudoeste 0 -- -- 81
2020-03-22 10:00:00 11.9 2 Noroeste 5 Noroeste 0 -- -- 94
2020-03-22 09:00:00 9.3 0 Calma 4 Norte 0 -- -- 100
2020-03-22 08:00:00 8.1 0 Calma 4 Norte 0 -- -- 99
2020-03-22 07:00:00 7.9 0 Calma 4 Este 0 -- -- 99
2020-03-22 06:00:00 8.5 0 Calma 3 Nordeste 0 -- -- 98
2020-03-22 05:00:00 9.5 2 Nordeste 3 Este 0 -- -- 98
2020-03-22 04:00:00 10 0 Calma 2 Este 0.2 -- -- 99
2020-03-22 03:00:00 10 2 Norte 2 Norte 0 -- -- 98
2020-03-22 02:00:00 10.4 2 Oeste 4 Oeste 0 -- -- 99
2020-03-22 01:00:00 10.5 2 Norte 6 Nordeste 0.6 -- -- 99
2020-03-22 00:00:00 10.7 4 Oeste 9 Sur 0.8 -- -- 99
2020-03-21 23:00:00 10.6 2 Este 6 Este 0.6 -- -- 98
2020-03-21 22:00:00 10.5 0 Calma 4 Nordeste 0 -- -- 98
2020-03-21 21:00:00 10.8 2 Nordeste 3 Norte 0 -- -- 97
2020-03-21 20:00:00 11.4 2 Nordeste 12 Este 0 -- -- 95
2020-03-21 19:00:00 11.9 8 Este 17 Sudeste 0 -- -- 93
2020-03-21 18:00:00 12.7 9 Sudeste 16 Sudeste 0.4 -- -- 92
2020-03-21 17:00:00 11.8 8 Este 17 Sur 1 -- -- 93
2020-03-21 16:00:00 12.1 9 Sudoeste 28 Sur 1.6 -- -- 89
2020-03-21 15:00:00 12.4 3 Nordeste 28 Sudoeste 1.8 -- -- 91
2020-03-21 14:00:00 13.9 6 Sudoeste 17 Sudoeste 0.6 -- -- 82
2020-03-21 13:00:00 13.5 17 Sudoeste 38 Sudoeste 0.6 -- -- 80
2020-03-21 12:00:00 15.4 4 Norte 16 Sudeste 0 -- -- 75
2020-03-21 11:00:00 15.1 5 Este 14 Sudeste 0 -- -- 74
2020-03-21 10:00:00 14.2 3 Oeste 6 Noroeste 0 -- -- 85
2020-03-21 09:00:00 10.6 0 Calma 5 Oeste 0 -- -- 99
2020-03-21 08:00:00 8.5 3 Nordeste 6 Sudeste 0 -- -- 99
2020-03-21 07:00:00 8.1 4 Nordeste 8 Nordeste 0 -- -- 99
2020-03-21 06:00:00 8.5 4 Este 7 Este 0 -- -- 98
2020-03-21 05:00:00 9.5 2 Nordeste 7 Oeste 0 -- -- 98
2020-03-21 04:00:00 10.3 3 Nordeste 6 Nordeste 0 -- -- 97
2020-03-21 03:00:00 11.5 0 Calma 8 Este 0.2 -- -- 97
2020-03-21 02:00:00 12 3 Sudoeste 24 Oeste 0.6 -- -- 93
2020-03-21 01:00:00 13.2 10 Sudoeste 41 Sudeste 11.2 -- -- 94
2020-03-21 00:00:00 14.4 20 Sudeste 43 Sudeste 3.2 -- -- 96
2020-03-20 23:00:00 14.5 17 Sudeste 37 Sudeste 1.2 -- -- 95
2020-03-20 22:00:00 14.6 21 Sudeste 37 Este 0.2 -- -- 93
2020-03-20 21:00:00 14.3 14 Sudeste 29 Sudeste 0.8 -- -- 95
2020-03-20 20:00:00 14.7 14 Sudeste 29 Este 0 -- -- 88
2020-03-20 19:00:00 15.2 13 Este 28 Sudeste 0 -- -- 83
2020-03-20 18:00:00 15.8 13 Sudeste 26 Sudeste 0 -- -- 77
2020-03-20 17:00:00 16.3 14 Sudeste 33 Sudeste 0 -- -- 75
2020-03-20 16:00:00 16.6 14 Sudeste 33 Sudeste 0 -- -- 74
2020-03-20 15:00:00 15.5 13 Sudeste 34 Este 0 -- -- 81
2020-03-20 14:00:00 15.7 15 Este 33 Este 0 -- -- 78
2020-03-20 13:00:00 15.8 18 Este 38 Este 0 -- -- 78
2020-03-20 12:00:00 14.8 11 Sudeste 25 Sudeste 0 -- -- 85
2020-03-20 11:00:00 14.4 15 Sudeste 31 Este 0 -- -- 84
2020-03-20 10:00:00 14.1 18 Este 33 Sudeste 0 -- -- 86
2020-03-20 09:00:00 14.6 15 Sudeste 33 Este 0 -- -- 82
2020-03-20 08:00:00 14.9 15 Sudeste 34 Sudeste 0 -- -- 76
2020-03-20 07:00:00 14.9 14 Este 31 Sudeste 0 -- -- 73
2020-03-20 06:00:00 14.8 12 Este 28 Este 0 -- -- 75
2020-03-20 05:00:00 14.9 13 Sudeste 27 Este 0 -- -- 73
2020-03-20 04:00:00 15 12 Sudeste 31 Sudeste 0 -- -- 71
2020-03-20 03:00:00 14.8 16 Sudeste 33 Sudeste 0 -- -- 74
2020-03-20 02:00:00 15 13 Sudeste 33 Este 0 -- -- 76
2020-03-20 01:00:00 15.2 15 Este 44 Este 0 -- -- 74
2020-03-20 00:00:00 15.3 19 Sudeste 38 Este 0 -- -- 79
2020-03-19 23:00:00 15.4 15 Este 32 Sudeste 0 -- -- 79
2020-03-19 22:00:00 15.4 12 Este 41 Sudeste 0 -- -- 79
2020-03-19 21:00:00 15.5 17 Sudeste 38 Sudeste 0 -- -- 77
2020-03-19 20:00:00 15.7 19 Sudeste 40 Este 0 -- -- 74
2020-03-19 19:00:00 15.7 17 Sudeste 31 Sudeste 0 -- -- 73
2020-03-19 18:00:00 16.3 12 Sudeste 37 Este 0 -- -- 74
2020-03-19 17:00:00 16.7 13 Sudeste 36 Este 0 -- -- 72
2020-03-19 16:00:00 16.4 15 Sudeste 43 Sudeste 0 -- -- 73
2020-03-19 15:00:00 16.2 19 Este 41 Sudeste 0 -- -- 74
2020-03-19 14:00:00 16.6 17 Este 44 Sudeste 0 -- -- 72
2020-03-19 13:00:00 16.4 21 Sudeste 51 Sudeste 0 -- -- 73
2020-03-19 12:00:00 16.8 20 Sudeste 49 Este 0 -- -- 71
2020-03-19 11:00:00 16.9 21 Sudeste 45 Sudeste 0 -- -- 70
2020-03-19 10:00:00 16.6 19 Sudeste 47 Sudeste 0 -- -- 70
2020-03-19 09:00:00 15.8 17 Sudeste 48 Este 0 -- -- 72
2020-03-19 08:00:00 15.6 17 Este 45 Sudeste 0 -- -- 72
2020-03-19 07:00:00 15.8 17 Este 33 Este 0 -- -- 71
2020-03-19 06:00:00 15.6 16 Este 30 Sudeste 0 -- -- 76
2020-03-19 05:00:00 15.6 13 Sudeste 43 Sudeste 0 -- -- 78
2020-03-19 04:00:00 15.7 16 Este 35 Sudeste 0 -- -- 78
2020-03-19 03:00:00 15.7 19 Este 39 Este 0 -- -- 79
2020-03-19 02:00:00 15.5 19 Sudeste 45 Sudeste 0 -- -- 80
2020-03-19 01:00:00 15.8 21 Sudeste 45 Este 0 -- -- 78
2020-03-19 00:00:00 15.9 21 Este 46 Sudeste 0 -- -- 77
2020-03-18 23:00:00 16.1 15 Sudeste 33 Este 0 -- -- 76
2020-03-18 22:00:00 16.1 16 Este 37 Sudeste 0 -- -- 73
2020-03-18 21:00:00 16.1 17 Sudeste 45 Este 0 -- -- 74
2020-03-18 20:00:00 16.3 16 Sudeste 35 Sudeste 0 -- -- 73
2020-03-18 19:00:00 16.5 18 Sudeste 41 Sudeste 0 -- -- 71
2020-03-18 18:00:00 16.7 23 Sudeste 45 Este 0 -- -- 72
2020-03-18 17:00:00 17.1 28 Este 60 Este 0 -- -- 71
2020-03-18 16:00:00 17.5 31 Este 65 Este 0 -- -- 73
2020-03-18 15:00:00 17.4 33 Este 68 Este 0 -- -- 73
2020-03-18 14:00:00 16.3 28 Este 66 Este 0 -- -- 77
2020-03-18 13:00:00 17.1 40 Sudeste 82 Sudeste 0 -- -- 74
2020-03-18 12:00:00 16 34 Sudeste 53 Sudeste 0.2 -- -- 79
2020-03-18 11:00:00 15.1 13 Este 45 Este 0.2 -- -- 84
2020-03-18 10:00:00 15.9 20 Este 46 Este 0 -- -- 78
2020-03-18 09:00:00 16 21 Este 47 Sudeste 0 -- -- 78
2020-03-18 08:00:00 16 27 Este 53 Sudeste 0 -- -- 79
2020-03-18 07:00:00 16.1 26 Sudeste 58 Este 0 -- -- 79
2020-03-18 06:00:00 16 22 Sudeste 57 Este 0 -- -- 80
2020-03-18 05:00:00 16.2 28 Sudeste 56 Sudeste 0 -- -- 77
2020-03-18 04:00:00 16.1 26 Este 62 Este 0 -- -- 79
2020-03-18 03:00:00 16.1 32 Este 66 Este 0 -- -- 80
2020-03-18 02:00:00 16.1 32 Este 61 Este 0.4 -- -- 81
2020-03-18 01:00:00 15.5 26 Este 60 Sudeste 0.6 -- -- 88
2020-03-18 00:00:00 14.9 11 Este 37 Este 0 -- -- 87
2020-03-17 23:00:00 15.7 18 Sudeste 40 Sudeste 0 -- -- 79
2020-03-17 22:00:00 15.3 13 Este 33 Este 0 -- -- 77
2020-03-17 21:00:00 14.1 12 Este 27 Este 0.2 -- -- 83
2020-03-17 20:00:00 14.1 9 Este 33 Este 0.2 -- -- 78
2020-03-17 19:00:00 14.7 16 Este 31 Este 0 -- -- 79
2020-03-17 18:00:00 14.5 17 Este 46 Este 0 -- -- 78
2020-03-17 17:00:00 16 23 Este 63 Este 0 -- -- 71
2020-03-17 16:00:00 16.5 32 Este 59 Este 0 -- -- 62
2020-03-17 15:00:00 16.6 26 Este 63 Este 0 -- -- 59
2020-03-17 14:00:00 15.9 29 Este 54 Este 0 -- -- 62
2020-03-17 13:00:00 15.8 27 Este 53 Este 0 -- -- 58
2020-03-17 12:00:00 14.8 28 Este 43 Este 0 -- -- 64
2020-03-17 11:00:00 11.1 4 Este 10 Nordeste 0 -- -- 83
2020-03-17 10:00:00 9.9 5 Nordeste 12 Nordeste 0.4 -- -- 88
2020-03-17 09:00:00 9.3 5 Este 20 Este 0 -- -- 89
2020-03-17 08:00:00 8.8 11 Este 21 Este 0 -- -- 88
2020-03-17 07:00:00 8.2 3 Noroeste 8 Este 0.4 -- -- 93
2020-03-17 06:00:00 8.2 6 Noroeste 16 Sur 0.6 -- -- 92
2020-03-17 05:00:00 8.2 6 Este 9 Este 0 -- -- 82
2020-03-17 04:00:00 7.6 4 Nordeste 8 Este 0 -- -- 81
2020-03-17 03:00:00 7.1 3 Sudeste 8 Sur 0 -- -- 81
2020-03-17 02:00:00 7.2 3 Nordeste 7 Nordeste 0 -- -- 80
2020-03-17 01:00:00 8.5 3 Nordeste 6 Oeste 0 -- -- 71
2020-03-17 00:00:00 10.4 4 Noroeste 9 Noroeste 0 -- -- 64
2020-03-16 23:00:00 12 5 Noroeste 17 Noroeste 0 -- -- 58
2020-03-16 22:00:00 13 8 Noroeste 26 Noroeste 0 -- -- 52
2020-03-16 21:00:00 12 8 Noroeste 18 Noroeste 0 -- -- 58
2020-03-16 20:00:00 13 4 Noroeste 23 Noroeste 0 -- -- 50
2020-03-16 19:00:00 15.2 11 Noroeste 38 Noroeste 0 -- -- 44
2020-03-16 18:00:00 16.3 23 Noroeste 46 Noroeste 0 -- -- 40
2020-03-16 17:00:00 16.1 22 Noroeste 46 Noroeste 0 -- -- 42
2020-03-16 16:00:00 16 22 Oeste 45 Oeste 0 -- -- 39
2020-03-16 15:00:00 16.5 24 Noroeste 46 Noroeste 0 -- -- 41
2020-03-16 14:00:00 16.5 21 Noroeste 39 Noroeste 0 -- -- 40
2020-03-16 13:00:00 15.8 23 Noroeste 41 Noroeste 0 -- -- 36
2020-03-16 12:00:00 14.8 20 Noroeste 38 Noroeste 0 -- -- 44
2020-03-16 11:00:00 14.4 22 Noroeste 37 Noroeste 0 -- -- 46
2020-03-16 10:00:00 13.3 19 Noroeste 31 Norte 0 -- -- 49
2020-03-16 09:00:00 11.4 17 Noroeste 33 Noroeste 0 -- -- 58
2020-03-16 08:00:00 11.9 15 Noroeste 36 Oeste 0 -- -- 60
2020-03-16 07:00:00 11.9 16 Noroeste 29 Noroeste 0.2 -- -- 71
2020-03-16 06:00:00 12.7 6 Oeste 16 Noroeste 0 -- -- 84
2020-03-16 05:00:00 13 4 Noroeste 10 Oeste 0 -- -- 96
2020-03-16 04:00:00 13 3 Noroeste 6 Noroeste 0 -- -- 97
2020-03-16 03:00:00 12.8 4 Nordeste 7 Norte 0.4 -- -- 97
2020-03-16 02:00:00 13 3 Sur 8 Nordeste 0 -- -- 93
2020-03-16 01:00:00 12.6 8 Nordeste 13 Nordeste 0 -- -- 94
2020-03-16 00:00:00 12.2 5 Este 6 Nordeste 0 -- -- 93
2020-03-15 23:00:00 14.1 0 Calma 4 Este 0 -- -- 89
2020-03-15 22:00:00 14.7 2 Norte 4 Noroeste 0 -- -- 89
2020-03-15 21:00:00 14.9 0 Calma 12 Sudeste 0 -- -- 87
2020-03-15 20:00:00 14.9 8 Sudeste 18 Sudeste 0 -- -- 85
2020-03-15 19:00:00 16.2 9 Sudeste 25 Sudeste 0 -- -- 76
2020-03-15 18:00:00 17.4 12 Sudeste 27 Sudeste 0 -- -- 72
2020-03-15 17:00:00 17.6 11 Sudeste 33 Sudeste 0 -- -- 71
2020-03-15 16:00:00 17.9 14 Sudeste 32 Sudeste 0 -- -- 71
2020-03-15 15:00:00 18.2 20 Sudeste 38 Sudeste 0 -- -- 70
2020-03-15 14:00:00 18.7 19 Sudeste 35 Sudeste 0 -- -- 71
2020-03-15 13:00:00 18.4 17 Sudeste 32 Este 0 -- -- 71
2020-03-15 12:00:00 17.2 15 Sudeste 30 Este 0 -- -- 75
2020-03-15 11:00:00 16.4 13 Sudeste 28 Sudeste 0 -- -- 78
2020-03-15 10:00:00 13.2 4 Noroeste 8 Sur 0 -- -- 95
2020-03-15 09:00:00 11.4 0 Calma 6 Noroeste 0 -- -- 97
2020-03-15 08:00:00 10.6 0 Calma 8 Nordeste 0 -- -- 97
2020-03-15 07:00:00 10.4 5 Nordeste 9 Nordeste 0 -- -- 95
2020-03-15 06:00:00 11.4 3 Nordeste 9 Nordeste 0 -- -- 95
2020-03-15 05:00:00 11.8 4 Norte 8 Nordeste 0 -- -- 94
2020-03-15 04:00:00 12.6 4 Nordeste 8 Norte 0 -- -- 96
2020-03-15 03:00:00 11.8 2 Noroeste 4 Noroeste 0 -- -- 97
2020-03-15 02:00:00 11.5 0 Calma 4 Nordeste 0 -- -- 96
2020-03-15 01:00:00 10.6 4 Nordeste 5 Este 0 -- -- 97
2020-03-15 00:00:00 10.7 0 Calma 4 Norte 0 -- -- 94
2020-03-14 23:00:00 11.2 4 Nordeste 6 Nordeste 0 -- -- 95
2020-03-14 22:00:00 11.5 5 Este 6 Nordeste 0 -- -- 92
2020-03-14 21:00:00 13.9 0 Calma 9 Sudeste 0 -- -- 87
2020-03-14 20:00:00 15.2 4 Sudeste 16 Sudeste 0 -- -- 85
2020-03-14 19:00:00 16.3 8 Sudeste 19 Sudeste 0 -- -- 79
2020-03-14 18:00:00 17.9 10 Sudeste 21 Sudeste 0 -- -- 72
2020-03-14 17:00:00 18.9 12 Sudeste 23 Sur 0 -- -- 70
2020-03-14 16:00:00 19.5 9 Sudeste 26 Sudeste 0 -- -- 68
2020-03-14 15:00:00 19.6 12 Sudeste 31 Sudeste 0 -- -- 67
2020-03-14 14:00:00 19.6 12 Sudeste 27 Sudeste 0 -- -- 68
2020-03-14 13:00:00 19.4 13 Sudeste 25 Sudeste 0 -- -- 68
2020-03-14 12:00:00 18.2 10 Este 22 Sudeste 0 -- -- 71
2020-03-14 11:00:00 17.2 4 Oeste 18 Sudeste 0 -- -- 75
2020-03-14 10:00:00 15.9 3 Noroeste 7 Noroeste 0 -- -- 80
2020-03-14 09:00:00 13.6 3 Norte 8 Norte 0 -- -- 90
2020-03-14 08:00:00 11.6 3 Nordeste 8 Nordeste 0 -- -- 94
2020-03-14 07:00:00 12.7 0 Calma 4 Noroeste 0 -- -- 92
2020-03-14 06:00:00 12.7 0 Calma 4 Este 0 -- -- 92
2020-03-14 05:00:00 12.4 0 Calma 4 Este 0 -- -- 92
2020-03-14 04:00:00 12.1 2 Sur 4 Sudeste 0 -- -- 92
2020-03-14 03:00:00 11.7 2 Noroeste 6 Norte 0 -- -- 94
2020-03-14 02:00:00 10.5 2 Nordeste 6 Nordeste 0 -- -- 95
2020-03-14 01:00:00 10.3 5 Nordeste 7 Nordeste 0 -- -- 94
2020-03-14 00:00:00 10.6 6 Nordeste 8 Nordeste 0 -- -- 93
2020-03-13 23:00:00 11.7 3 Este 8 Nordeste 0 -- -- 90
2020-03-13 22:00:00 12.9 5 Este 7 Nordeste 0 -- -- 87
2020-03-13 21:00:00 15.8 2 Sudoeste 15 Sudeste 0 -- -- 79
2020-03-13 20:00:00 17.5 6 Sur 12 Sudeste 0 -- -- 73
2020-03-13 19:00:00 19.5 6 Sudoeste 17 Oeste 0 -- -- 67
2020-03-13 18:00:00 22.4 11 Oeste 29 Oeste 0 -- -- 59
2020-03-13 17:00:00 23.7 16 Oeste 31 Oeste 0 -- -- 54
2020-03-13 16:00:00 24.5 17 Oeste 29 Oeste 0 -- -- 50
2020-03-13 15:00:00 23.6 15 Oeste 28 Oeste 0 -- -- 54
2020-03-13 14:00:00 22.3 16 Sudoeste 25 Sudoeste 0 -- -- 58
2020-03-13 13:00:00 20 12 Oeste 27 Oeste 0 -- -- 66
2020-03-13 12:00:00 17.4 15 Oeste 31 Oeste 0 -- -- 71
2020-03-13 11:00:00 17.5 19 Oeste 34 Oeste 0 -- -- 71
2020-03-13 10:00:00 14.1 4 Oeste 10 Norte 0 -- -- 85
2020-03-13 09:00:00 7.6 3 Este 8 Nordeste 0 -- -- 98
2020-03-13 08:00:00 6.8 3 Nordeste 10 Nordeste 0 -- -- 98
2020-03-13 07:00:00 6.6 6 Este 8 Este 0 -- -- 96
2020-03-13 06:00:00 7.1 4 Nordeste 8 Este 0 -- -- 96
2020-03-13 05:00:00 7.4 3 Nordeste 5 Norte 0 -- -- 95
2020-03-13 04:00:00 7.9 4 Nordeste 6 Este 0 -- -- 95
2020-03-13 03:00:00 8.5 0 Calma 10 Nordeste 0 -- -- 93
2020-03-13 02:00:00 9.3 5 Este 9 Nordeste 0 -- -- 92
2020-03-13 01:00:00 9.9 8 Nordeste 10 Nordeste 0 -- -- 90
2020-03-13 00:00:00 11.1 8 Nordeste 10 Este 0 -- -- 88
2020-03-12 23:00:00 12.7 5 Nordeste 12 Nordeste 0 -- -- 82
2020-03-12 22:00:00 14.5 2 Este 15 Nordeste 0 -- -- 75
2020-03-12 21:00:00 15 3 Este 9 Nordeste 0 -- -- 76
2020-03-12 20:00:00 17.2 5 Nordeste 9 Nordeste 0 -- -- 70
2020-03-12 19:00:00 21.6 3 Nordeste 5 Este 0 -- -- 59
2020-03-12 18:00:00 26.1 3 Sudoeste 10 Sur 0 -- -- 37
2020-03-12 17:00:00 25.5 4 Sur 13 Sur 0 -- -- 38
2020-03-12 16:00:00 25.3 5 Sur 12 Sudoeste 0 -- -- 38
2020-03-12 15:00:00 25.9 9 Sur 16 Sur 0 -- -- 35
2020-03-12 14:00:00 24.9 10 Sudeste 19 Sur 0 -- -- 36
2020-03-12 13:00:00 24.4 6 Sudoeste 12 Sudoeste 0 -- -- 44
2020-03-12 12:00:00 21.7 4 Noroeste 8 Noroeste 0 -- -- 55
2020-03-12 11:00:00 17.8 3 Oeste 6 Oeste 0 -- -- 69
2020-03-12 10:00:00 13.4 0 Calma 5 Este 0 -- -- 80
2020-03-12 09:00:00 8.3 0 Calma 6 Nordeste 0 -- -- 96
2020-03-12 08:00:00 6.3 3 Este 6 Nordeste 0 -- -- 96
2020-03-12 07:00:00 6.2 3 Este 5 Este 0 -- -- 95
2020-03-12 06:00:00 6.7 3 Nordeste 5 Este 0 -- -- 96
2020-03-12 05:00:00 6.5 3 Norte 8 Nordeste 0 -- -- 95
2020-03-12 04:00:00 6.8 0 Calma 5 Este 0 -- -- 95
2020-03-12 03:00:00 7 2 Este 6 Este 0 -- -- 94
2020-03-12 02:00:00 7.6 3 Nordeste 6 Este 0 -- -- 92
2020-03-12 01:00:00 8 2 Este 6 Este 0 -- -- 91
2020-03-12 00:00:00 8.9 3 Este 6 Este 0 -- -- 89
2020-03-11 23:00:00 10.1 0 Calma 9 Nordeste 0 -- -- 84
2020-03-11 22:00:00 11.4 4 Nordeste 12 Nordeste 0 -- -- 80
2020-03-11 21:00:00 13 8 Nordeste 12 Nordeste 0 -- -- 76
2020-03-11 20:00:00 16.3 4 Este 14 Sur 0 -- -- 62
2020-03-11 19:00:00 20.4 6 Oeste 20 Sur 0 -- -- 54
2020-03-11 18:00:00 22 12 Sudeste 21 Sudeste 0 -- -- 45
2020-03-11 17:00:00 23.4 9 Sudeste 19 Sudeste 0 -- -- 42
2020-03-11 16:00:00 22.4 8 Sudeste 29 Sur 0 -- -- 46
2020-03-11 15:00:00 22.1 14 Sudeste 33 Sur 0 -- -- 44
2020-03-11 14:00:00 23.4 19 Sudeste 33 Sudeste 0 -- -- 43
2020-03-11 13:00:00 23.9 18 Sudeste 33 Este 0 -- -- 41
2020-03-11 12:00:00 22.3 8 Sudeste 19 Sudeste 0 -- -- 43
2020-03-11 11:00:00 20 7 Sudeste 16 Sudeste 0 -- -- 46
2020-03-11 10:00:00 14 2 Noroeste 6 Oeste 0 -- -- 72
2020-03-11 09:00:00 9.6 2 Nordeste 6 Este 0 -- -- 85
2020-03-11 08:00:00 5.3 2 Este 9 Norte 0 -- -- 95
2020-03-11 07:00:00 5.3 5 Este 9 Este 0 -- -- 93
2020-03-11 06:00:00 6 4 Nordeste 9 Nordeste 0 -- -- 92
2020-03-11 05:00:00 6.3 4 Este 7 Este 0 -- -- 91
2020-03-11 04:00:00 6.1 4 Este 9 Nordeste 0 -- -- 90
2020-03-11 03:00:00 6.8 5 Este 7 Nordeste 0 -- -- 89
2020-03-11 02:00:00 7.6 5 Nordeste 9 Norte 0 -- -- 87
2020-03-11 01:00:00 7.5 4 Este 9 Nordeste 0 -- -- 86
2020-03-11 00:00:00 8.3 4 Norte 8 Nordeste 0 -- -- 83
2020-03-10 23:00:00 9.8 5 Nordeste 11 Norte 0 -- -- 77
2020-03-10 22:00:00 10.8 5 Nordeste 10 Nordeste 0 -- -- 73
2020-03-10 21:00:00 11.9 8 Nordeste 11 Nordeste 0 -- -- 71
2020-03-10 20:00:00 15.9 4 Sudeste 14 Sur 0 -- -- 53
2020-03-10 19:00:00 18.7 6 Sudeste 25 Sudeste 0 -- -- 43
2020-03-10 18:00:00 20 11 Sur 35 Este 0 -- -- 42
2020-03-10 17:00:00 20.3 20 Sudeste 49 Sudeste 0 -- -- 46
2020-03-10 16:00:00 20.3 29 Sudeste 56 Sudeste 0 -- -- 52
2020-03-10 15:00:00 20.5 33 Sudeste 60 Sudeste 0 -- -- 54
2020-03-10 14:00:00 22.7 23 Sudeste 44 Sudeste 0 -- -- 42
2020-03-10 13:00:00 23.5 19 Sudeste 35 Sudeste 0 -- -- 41
2020-03-10 12:00:00 23.1 4 Este 9 Sudeste 0 -- -- 45
2020-03-10 11:00:00 19.7 3 Oeste 6 Sudoeste 0 -- -- 51
2020-03-10 10:00:00 15.2 2 Norte 4 Nordeste 0 -- -- 63
2020-03-10 09:00:00 10.5 2 Este 4 Nordeste 0 -- -- 76
2020-03-10 08:00:00 6.9 3 Nordeste 5 Nordeste 0 -- -- 86
2020-03-10 07:00:00 7.9 3 Nordeste 9 Este 0 -- -- 81
2020-03-10 06:00:00 8.5 6 Nordeste 11 Nordeste 0 -- -- 79
2020-03-10 05:00:00 9.1 7 Este 11 Nordeste 0 -- -- 78
2020-03-10 04:00:00 10.9 6 Este 10 Este 0 -- -- 71
2020-03-10 03:00:00 12.6 4 Este 18 Noroeste 0 -- -- 66
2020-03-10 02:00:00 11.5 8 Norte 11 Norte 0 -- -- 71
2020-03-10 01:00:00 10.7 3 Noroeste 8 Nordeste 0 -- -- 74
2020-03-10 00:00:00 12.8 3 Nordeste 15 Norte 0 -- -- 65